createdAt,value
2019-01-25T00:02:12.765Z,23.80
2019-01-25T00:07:17.132Z,26.20
2019-01-25T00:12:21.531Z,25.53
2019-01-25T00:17:26.080Z,26.63
2019-01-25T00:22:30.482Z,25.27
2019-01-25T00:27:34.891Z,26.87
2019-01-25T00:32:39.387Z,26.23
2019-01-25T00:37:43.842Z,26.30
2019-01-25T00:42:48.217Z,25.77
2019-01-25T00:47:52.704Z,24.73
2019-01-25T00:52:57.153Z,25.67
2019-01-25T00:58:01.601Z,26.27
2019-01-25T01:03:06.710Z,26.07
2019-01-25T01:08:11.093Z,27.13
2019-01-25T01:13:15.485Z,26.30
2019-01-25T01:18:19.829Z,27.53
2019-01-25T01:23:24.229Z,26.53
2019-01-25T01:28:28.631Z,25.67
2019-01-25T01:33:33.006Z,25.80
2019-01-25T01:38:37.397Z,26.73
2019-01-25T01:43:41.729Z,26.70
2019-01-25T01:48:46.145Z,27.50
2019-01-25T01:53:50.608Z,27.40
2019-01-25T01:58:55.004Z,27.20
2019-01-25T02:03:59.586Z,25.57
2019-01-25T02:09:05.242Z,28.60
2019-01-25T02:14:09.792Z,26.60
2019-01-25T02:19:14.173Z,26.10
2019-01-25T02:24:18.555Z,26.03
2019-01-25T02:29:22.901Z,25.83
2019-01-25T02:34:27.380Z,27.20
2019-01-25T02:39:31.807Z,26.20
2019-01-25T02:44:36.228Z,27.00
2019-01-25T02:49:40.607Z,27.73
2019-01-25T02:54:44.990Z,25.90
2019-01-25T02:59:49.409Z,27.03
2019-01-25T03:04:53.786Z,25.87
2019-01-25T03:09:58.212Z,26.53
2019-01-25T03:15:02.613Z,26.43
2019-01-25T03:20:09.337Z,26.23
2019-01-25T03:25:19.107Z,26.97
2019-01-25T03:30:25.484Z,26.13
2019-01-25T03:35:29.841Z,27.10
2019-01-25T03:40:34.200Z,27.30
2019-01-25T03:45:39.558Z,27.87
2019-01-25T03:50:43.870Z,27.93
2019-01-25T03:55:48.288Z,25.27
2019-01-25T04:00:52.648Z,25.80
2019-01-25T04:05:57.037Z,25.52
2019-01-25T04:11:03.906Z,26.63
2019-01-25T04:16:07.496Z,25.57
2019-01-25T04:21:11.917Z,27.10
2019-01-25T04:26:16.287Z,27.93
2019-01-25T04:31:20.890Z,27.63
2019-01-25T04:36:25.279Z,28.10
2019-01-25T04:41:29.652Z,28.37
2019-01-25T04:46:34.001Z,27.73
2019-01-25T04:51:38.352Z,27.87
2019-01-25T04:56:42.739Z,29.20
2019-01-25T05:01:47.130Z,29.47
2019-01-25T05:06:51.556Z,29.30
2019-01-25T05:11:55.906Z,29.23
2019-01-25T05:17:00.276Z,29.33
2019-01-25T05:22:04.646Z,28.57
2019-01-25T05:27:09.089Z,27.97
2019-01-25T05:32:15.541Z,31.23
2019-01-25T05:37:19.551Z,29.32
2019-01-25T05:42:23.901Z,29.53
2019-01-25T05:47:28.262Z,29.30
2019-01-25T05:52:32.642Z,29.15
2019-01-25T05:57:37.031Z,30.70
2019-01-25T06:02:41.480Z,29.73
2019-01-25T06:07:45.851Z,31.60
2019-01-25T06:12:54.636Z,31.07
2019-01-25T06:18:01.253Z,30.87
2019-01-25T06:23:05.647Z,31.17
2019-01-25T06:28:10.198Z,31.07
2019-01-25T06:33:14.541Z,31.20
2019-01-25T06:38:18.918Z,32.63
2019-01-25T06:43:23.354Z,32.50
2019-01-25T06:48:27.791Z,32.07
2019-01-25T06:53:32.168Z,31.97
2019-01-25T06:58:38.160Z,31.23
2019-01-25T07:03:42.536Z,32.17
2019-01-25T07:08:46.923Z,32.37
2019-01-25T07:13:51.308Z,31.63
2019-01-25T07:18:55.648Z,33.23
2019-01-25T07:23:59.994Z,32.93
2019-01-25T07:29:05.162Z,32.20
2019-01-25T07:34:10.750Z,33.17
2019-01-25T07:39:18.513Z,32.63
2019-01-25T07:44:22.957Z,32.73
2019-01-25T07:49:28.430Z,31.07
2019-01-25T07:54:32.888Z,32.97
2019-01-25T07:59:37.271Z,34.53
2019-01-25T08:04:41.635Z,34.37
2019-01-25T08:09:47.056Z,33.77
2019-01-25T08:14:51.437Z,32.83
2019-01-25T08:19:55.893Z,32.80
2019-01-25T08:25:00.736Z,33.23
2019-01-25T08:30:19.884Z,33.27
2019-01-25T08:35:24.302Z,32.33
2019-01-25T08:40:28.706Z,33.00
2019-01-25T08:45:33.140Z,32.53
2019-01-25T08:50:37.698Z,32.37
2019-01-25T08:55:42.555Z,33.40
2019-01-25T09:00:46.938Z,32.60
2019-01-25T09:05:51.331Z,31.23
2019-01-25T09:10:55.830Z,31.33
2019-01-25T09:16:00.362Z,32.03
2019-01-25T09:21:04.831Z,32.10
2019-01-25T09:26:09.213Z,31.30
2019-01-25T09:31:13.576Z,31.53
2019-01-25T09:36:17.941Z,28.97
2019-01-25T09:41:24.243Z,27.87
2019-01-25T09:46:30.165Z,26.63
2019-01-25T09:51:34.845Z,27.13
2019-01-25T09:56:39.214Z,25.43
2019-01-25T10:01:43.609Z,27.17
2019-01-25T10:06:48.755Z,27.67
2019-01-25T10:11:53.142Z,26.50
2019-01-25T10:16:57.508Z,24.17
2019-01-25T10:22:02.060Z,27.20
2019-01-25T10:27:06.487Z,22.30
2019-01-25T10:32:10.841Z,22.73
2019-01-25T10:37:15.210Z,24.33
2019-01-25T10:42:19.578Z,22.17
2019-01-25T10:47:23.942Z,23.83
2019-01-25T10:52:28.331Z,23.37
2019-01-25T10:57:32.709Z,21.87
2019-01-25T11:02:37.065Z,22.80
2019-01-25T11:07:41.452Z,23.47
2019-01-25T11:12:45.927Z,24.17
2019-01-25T11:17:50.763Z,24.43
2019-01-25T11:22:55.318Z,24.87
2019-01-25T11:27:59.700Z,24.53
2019-01-25T11:33:04.496Z,23.77
2019-01-25T11:38:08.940Z,25.27
2019-01-25T11:43:13.323Z,24.43
2019-01-25T11:48:17.696Z,22.93
2019-01-25T11:53:22.051Z,24.37
2019-01-25T11:58:26.465Z,22.57
2019-01-25T12:03:30.828Z,23.87
2019-01-25T12:08:35.285Z,23.37
2019-01-25T12:13:39.693Z,21.67
2019-01-25T12:18:44.101Z,21.13
2019-01-25T12:23:48.462Z,21.60
2019-01-25T12:28:53.630Z,21.43
2019-01-25T12:33:58.004Z,21.13
2019-01-25T12:39:02.361Z,21.47
2019-01-25T12:44:08.429Z,22.50
2019-01-25T12:49:12.785Z,21.20
2019-01-25T12:54:17.174Z,21.70
2019-01-25T12:59:21.540Z,21.23
2019-01-25T13:04:25.917Z,21.77
2019-01-25T13:09:30.310Z,19.90
2019-01-25T13:14:34.819Z,19.10
2019-01-25T13:19:39.175Z,19.53
2019-01-25T13:24:43.535Z,18.67
2019-01-25T13:29:48.595Z,20.12
2019-01-25T13:34:53.026Z,22.17
2019-01-25T13:39:57.429Z,21.80
2019-01-25T13:45:01.786Z,22.80
2019-01-25T13:50:09.771Z,23.10
2019-01-25T13:55:16.074Z,21.97
2019-01-25T14:00:28.323Z,21.33
2019-01-25T14:05:32.804Z,19.67
2019-01-25T14:10:37.627Z,20.97
2019-01-25T14:15:41.992Z,20.27
2019-01-25T14:20:46.369Z,19.20
2019-01-25T14:25:50.774Z,20.63
2019-01-25T14:30:55.139Z,21.40
2019-01-25T14:35:59.646Z,23.10
2019-01-25T14:41:04.170Z,24.20
2019-01-25T14:46:08.556Z,25.40
2019-01-25T14:51:13.501Z,27.03
2019-01-25T14:56:18.003Z,26.00
2019-01-25T15:01:22.390Z,27.43
2019-01-25T15:06:27.016Z,26.17
2019-01-25T15:11:31.403Z,27.50
2019-01-25T15:16:35.761Z,28.27
2019-01-25T15:21:40.140Z,28.03
2019-01-25T15:26:44.495Z,30.03
2019-01-25T15:31:48.872Z,30.63
2019-01-25T15:36:53.232Z,28.67
2019-01-25T15:41:57.607Z,30.07
2019-01-25T15:47:02.108Z,29.53
2019-01-25T15:52:06.436Z,30.63
2019-01-25T15:57:10.839Z,30.07
2019-01-25T16:02:15.236Z,28.70
2019-01-25T16:07:19.616Z,30.43
2019-01-25T16:12:24.092Z,29.20
2019-01-25T16:17:28.618Z,29.50
2019-01-25T16:22:32.989Z,30.17
2019-01-25T16:27:37.464Z,29.70
2019-01-25T16:32:41.798Z,30.47
2019-01-25T16:37:46.166Z,29.37
2019-01-25T16:42:50.567Z,30.73
2019-01-25T16:47:55.071Z,30.07
2019-01-25T16:52:59.888Z,29.80
2019-01-25T16:58:04.528Z,30.50
2019-01-25T17:03:09.145Z,30.67
2019-01-25T17:08:14.580Z,29.73
2019-01-25T17:13:19.196Z,32.07
2019-01-25T17:18:23.586Z,31.52
2019-01-25T17:23:27.970Z,32.80
2019-01-25T17:28:32.351Z,34.13
2019-01-25T17:33:36.857Z,31.77
2019-01-25T17:38:41.272Z,34.33
2019-01-25T17:43:45.699Z,33.77
2019-01-25T17:48:50.112Z,31.63
2019-01-25T17:53:54.478Z,31.43
2019-01-25T17:58:58.834Z,29.33
2019-01-25T18:04:03.188Z,30.37
2019-01-25T18:09:07.978Z,23.30
2019-01-25T18:14:13.244Z,22.63
2019-01-25T18:19:17.632Z,22.00
2019-01-25T18:24:22.075Z,20.83
2019-01-25T18:29:26.809Z,17.10
2019-01-25T18:34:31.231Z,15.70
2019-01-25T18:39:35.596Z,16.65
2019-01-25T18:44:39.949Z,16.80
2019-01-25T18:49:44.294Z,15.40
2019-01-25T18:54:48.661Z,16.10
2019-01-25T18:59:53.168Z,17.50
2019-01-25T19:04:57.577Z,16.23
2019-01-25T19:10:01.974Z,16.77
2019-01-25T19:15:09.695Z,17.87
2019-01-25T19:20:14.979Z,17.80
2019-01-25T19:25:19.412Z,17.37
2019-01-25T19:30:26.148Z,16.70
2019-01-25T19:35:30.610Z,16.37
2019-01-25T19:40:36.230Z,17.47
2019-01-25T19:45:40.751Z,18.00
2019-01-25T19:50:45.251Z,17.25
2019-01-25T19:55:49.630Z,17.73
2019-01-25T20:00:54.024Z,17.43
2019-01-25T20:05:58.922Z,17.40
2019-01-25T20:11:03.838Z,17.85
2019-01-25T20:16:09.715Z,17.20
2019-01-25T20:21:14.832Z,18.47
2019-01-25T20:26:19.674Z,17.70
2019-01-25T20:31:26.066Z,18.37
2019-01-25T20:36:31.220Z,18.03
2019-01-25T20:41:35.922Z,17.70
2019-01-25T20:46:41.038Z,16.93
2019-01-25T20:51:47.428Z,16.47
2019-01-25T20:56:52.556Z,18.33
2019-01-25T21:01:58.403Z,18.13
2019-01-25T21:07:03.055Z,18.77
2019-01-25T21:12:09.340Z,18.37
2019-01-25T21:17:14.037Z,17.32
2019-01-25T21:22:18.890Z,18.50
2019-01-25T21:27:23.793Z,19.07
2019-01-25T21:32:29.095Z,18.30
2019-01-25T21:37:34.612Z,17.53
2019-01-25T21:42:39.243Z,18.30
2019-01-25T21:47:43.625Z,18.03
2019-01-25T21:52:48.279Z,18.73
2019-01-25T21:57:53.769Z,18.23
2019-01-25T22:02:58.127Z,18.97
2019-01-25T22:08:02.593Z,17.87
2019-01-25T22:13:07.314Z,17.93
2019-01-25T22:18:11.975Z,18.47
2019-01-25T22:23:17.101Z,18.37
2019-01-25T22:28:21.605Z,18.70
2019-01-25T22:33:25.965Z,18.53
2019-01-25T22:38:30.321Z,18.60
2019-01-25T22:43:34.716Z,17.77
2019-01-25T22:48:39.124Z,18.33
2019-01-25T22:53:43.578Z,17.80
2019-01-25T22:58:47.934Z,18.80
2019-01-25T23:04:01.245Z,17.07
2019-01-25T23:09:17.975Z,17.13
2019-01-25T23:14:23.328Z,18.03
2019-01-25T23:19:27.877Z,17.47
2019-01-25T23:24:32.249Z,17.53
2019-01-25T23:29:36.623Z,16.37
2019-01-25T23:34:40.967Z,17.93
2019-01-25T23:39:45.368Z,17.60
2019-01-25T23:44:49.779Z,17.10
2019-01-25T23:49:54.128Z,17.53
2019-01-25T23:54:58.471Z,15.90
